createdAt,value
2022-11-04T00:02:30.705Z,15.66
2022-11-04T00:05:05.456Z,15.59
2022-11-04T00:08:04.166Z,15.54
2022-11-04T00:10:51.345Z,15.47
2022-11-04T00:13:23.488Z,15.46
2022-11-04T00:16:15.109Z,15.43
2022-11-04T00:19:52.919Z,15.40
2022-11-04T00:22:43.831Z,15.35
2022-11-04T00:25:34.312Z,15.32
2022-11-04T00:28:31.066Z,15.29
2022-11-04T00:31:19.107Z,15.22
2022-11-04T00:33:52.643Z,15.16
2022-11-04T00:36:28.395Z,15.13
2022-11-04T00:39:01.856Z,15.12
2022-11-04T00:41:34.960Z,15.11
2022-11-04T00:44:08.085Z,15.10
2022-11-04T00:46:40.064Z,15.08
2022-11-04T00:49:14.771Z,15.09
2022-11-04T00:51:46.698Z,15.11
2022-11-04T00:54:23.912Z,15.05
2022-11-04T00:56:55.785Z,15.04
2022-11-04T00:59:30.404Z,15.04
2022-11-04T01:02:03.765Z,15.03
2022-11-04T01:04:37.781Z,15.06
2022-11-04T01:07:10.289Z,15.04
2022-11-04T01:09:45.861Z,15.08
2022-11-04T01:12:19.957Z,15.12
2022-11-04T01:14:52.021Z,15.12
2022-11-04T01:17:24.788Z,15.16
2022-11-04T01:19:59.019Z,15.19
2022-11-04T01:22:31.821Z,15.22
2022-11-04T01:25:07.520Z,15.21
2022-11-04T01:27:39.426Z,15.20
2022-11-04T01:30:14.551Z,15.24
2022-11-04T01:32:48.059Z,15.28
2022-11-04T01:35:21.335Z,15.30
2022-11-04T01:37:59.545Z,15.31
2022-11-04T01:40:37.294Z,15.32
2022-11-04T01:43:16.426Z,15.37
2022-11-04T01:45:51.663Z,15.41
2022-11-04T01:48:27.773Z,15.40
2022-11-04T01:51:00.772Z,15.42
2022-11-04T01:53:39.153Z,15.39
2022-11-04T01:56:14.498Z,15.38
2022-11-04T01:58:53.576Z,15.44
2022-11-04T02:01:29.135Z,15.45
2022-11-04T02:04:17.710Z,15.43
2022-11-04T02:06:52.147Z,15.44
2022-11-04T02:09:27.665Z,15.43
2022-11-04T02:12:20.267Z,15.48
2022-11-04T02:14:55.472Z,15.51
2022-11-04T02:17:38.193Z,15.46
2022-11-04T02:20:25.396Z,15.44
2022-11-04T02:23:32.695Z,15.41
2022-11-04T02:26:28.237Z,15.36
2022-11-04T02:29:26.921Z,15.32
2022-11-04T02:32:07.892Z,15.29
2022-11-04T02:34:43.581Z,15.30
2022-11-04T02:37:29.951Z,15.28
2022-11-04T02:40:16.686Z,15.28
2022-11-04T02:42:54.605Z,15.32
2022-11-04T02:45:31.947Z,15.36
2022-11-04T02:48:12.044Z,15.40
2022-11-04T02:50:50.183Z,15.34
2022-11-04T02:53:27.430Z,15.32
2022-11-04T02:56:05.072Z,15.33
2022-11-04T02:58:40.345Z,15.33
2022-11-04T03:01:15.287Z,15.34
2022-11-04T03:03:51.348Z,15.32
2022-11-04T03:06:29.368Z,15.34
2022-11-04T03:09:04.243Z,15.35
2022-11-04T03:11:36.793Z,15.32
2022-11-04T03:14:11.634Z,15.30
2022-11-04T03:16:46.680Z,15.30
2022-11-04T03:19:22.034Z,15.28
2022-11-04T03:22:00.011Z,15.23
2022-11-04T03:24:34.920Z,15.26
2022-11-04T03:27:11.716Z,15.28
2022-11-04T03:29:53.955Z,15.28
2022-11-04T03:32:34.149Z,15.27
2022-11-04T03:35:08.618Z,15.31
2022-11-04T03:37:42.863Z,15.35
2022-11-04T03:40:17.953Z,15.31
2022-11-04T03:42:55.304Z,15.32
2022-11-04T03:45:28.547Z,15.35
2022-11-04T03:48:01.109Z,15.36
2022-11-04T03:50:40.768Z,15.35
2022-11-04T03:53:20.274Z,15.30
2022-11-04T03:56:09.214Z,15.31
2022-11-04T03:58:49.725Z,15.27
2022-11-04T04:01:31.645Z,15.23
2022-11-04T04:04:10.194Z,15.20
2022-11-04T04:06:45.137Z,15.17
2022-11-04T04:09:22.264Z,15.11
2022-11-04T04:12:00.489Z,15.11
2022-11-04T04:14:44.952Z,15.08
2022-11-04T04:17:21.528Z,15.02
2022-11-04T04:19:56.107Z,14.97
2022-11-04T04:22:30.560Z,14.94
2022-11-04T04:25:23.804Z,14.89
2022-11-04T04:27:56.580Z,14.82
2022-11-04T04:30:30.072Z,14.79
2022-11-04T04:33:06.555Z,14.79
2022-11-04T04:35:44.349Z,14.79
2022-11-04T04:38:39.892Z,14.78
2022-11-04T04:41:36.084Z,14.74
2022-11-04T04:44:33.724Z,14.73
2022-11-04T04:47:09.235Z,14.68
2022-11-04T04:49:52.330Z,14.61
2022-11-04T04:52:28.027Z,14.55
2022-11-04T04:55:02.258Z,14.52
2022-11-04T04:57:39.074Z,14.47
2022-11-04T05:00:16.711Z,14.40
2022-11-04T05:02:49.584Z,14.43
2022-11-04T05:05:22.081Z,14.39
2022-11-04T05:08:07.020Z,14.35
2022-11-04T05:10:40.854Z,14.30
2022-11-04T05:13:30.448Z,14.30
2022-11-04T05:16:10.272Z,14.26
2022-11-04T05:18:46.102Z,14.18
2022-11-04T05:21:23.224Z,14.16
2022-11-04T05:23:55.629Z,14.13
2022-11-04T05:26:30.857Z,14.04
2022-11-04T05:29:07.723Z,14.04
2022-11-04T05:31:40.467Z,14.04
2022-11-04T05:34:13.612Z,14.02
2022-11-04T05:36:46.985Z,13.96
2022-11-04T05:39:19.996Z,13.93
2022-11-04T05:41:54.560Z,13.91
2022-11-04T05:44:27.358Z,13.93
2022-11-04T05:47:01.335Z,13.90
2022-11-04T05:49:35.779Z,13.90
2022-11-04T05:52:11.432Z,13.93
2022-11-04T05:54:45.408Z,13.93
2022-11-04T05:57:19.392Z,13.93
2022-11-04T05:59:51.721Z,13.94
2022-11-04T06:02:25.041Z,13.97
2022-11-04T06:04:57.285Z,14.02
2022-11-04T06:07:29.905Z,14.06
2022-11-04T06:10:05.855Z,14.10
2022-11-04T06:12:37.968Z,14.15
2022-11-04T06:15:12.277Z,14.19
2022-11-04T06:17:45.643Z,14.24
2022-11-04T06:20:18.704Z,14.32
2022-11-04T06:22:53.295Z,14.36
2022-11-04T06:25:31.477Z,14.44
2022-11-04T06:28:05.264Z,14.50
2022-11-04T06:30:39.039Z,14.52
2022-11-04T06:33:14.972Z,14.57
2022-11-04T06:36:03.200Z,14.68
2022-11-04T06:38:39.438Z,14.78
2022-11-04T06:41:14.881Z,14.89
2022-11-04T06:43:48.585Z,14.91
2022-11-04T06:46:35.612Z,14.96
2022-11-04T06:49:11.723Z,15.03
2022-11-04T06:51:45.883Z,15.07
2022-11-04T06:54:18.207Z,15.14
2022-11-04T06:56:51.065Z,15.29
2022-11-04T06:59:25.970Z,15.40
2022-11-04T07:01:58.158Z,15.50
2022-11-04T07:04:31.687Z,15.62
2022-11-04T07:07:05.778Z,15.73
2022-11-04T07:09:42.940Z,15.80
2022-11-04T07:12:20.138Z,15.92
2022-11-04T07:14:56.775Z,16.06
2022-11-04T07:17:32.825Z,16.21
2022-11-04T07:20:17.420Z,16.32
2022-11-04T07:22:58.187Z,16.49
2022-11-04T07:26:08.432Z,16.66
2022-11-04T07:29:08.744Z,16.82
2022-11-04T07:31:43.794Z,16.94
2022-11-04T07:34:43.539Z,17.03
2022-11-04T07:37:42.431Z,17.06
2022-11-04T07:40:41.600Z,17.12
2022-11-04T07:43:38.265Z,17.20
2022-11-04T07:46:20.446Z,17.22
2022-11-04T07:49:22.620Z,17.24
2022-11-04T07:51:54.717Z,17.31
2022-11-04T07:54:29.036Z,17.44
2022-11-04T07:57:01.434Z,17.51
2022-11-04T07:59:34.227Z,17.60
2022-11-04T08:02:06.849Z,17.66
2022-11-04T08:04:41.728Z,17.67
2022-11-04T08:07:16.477Z,17.79
2022-11-04T08:09:52.118Z,17.89
2022-11-04T08:12:27.932Z,17.95
2022-11-04T08:15:00.685Z,17.98
2022-11-04T08:17:33.756Z,17.98
2022-11-04T08:20:09.860Z,17.97
2022-11-04T08:22:41.850Z,18.01
2022-11-04T08:25:14.396Z,18.01
2022-11-04T08:27:50.217Z,18.00
2022-11-04T08:30:24.211Z,18.03
2022-11-04T08:33:00.087Z,18.10
2022-11-04T08:35:39.747Z,18.13
2022-11-04T08:38:15.528Z,18.16
2022-11-04T08:40:48.537Z,18.22
2022-11-04T08:43:21.582Z,18.23
2022-11-04T08:45:55.012Z,18.30
2022-11-04T08:48:30.697Z,18.43
2022-11-04T08:51:04.277Z,18.51
2022-11-04T08:53:38.263Z,18.56
2022-11-04T08:56:17.330Z,18.62
2022-11-04T08:58:49.599Z,18.60
2022-11-04T09:01:24.112Z,18.62
2022-11-04T09:03:58.101Z,18.60
2022-11-04T09:06:34.283Z,18.64
2022-11-04T09:09:09.807Z,18.74
2022-11-04T09:11:45.104Z,18.86
2022-11-04T09:14:20.861Z,18.92
2022-11-04T09:16:55.768Z,19.00
2022-11-04T09:19:28.715Z,19.11
2022-11-04T09:22:01.354Z,19.11
2022-11-04T09:24:35.634Z,19.16
2022-11-04T09:27:11.660Z,19.17
2022-11-04T09:29:47.651Z,19.23
2022-11-04T09:33:08.093Z,19.29
2022-11-04T09:36:10.673Z,19.30
2022-11-04T09:42:29.026Z,19.44
2022-11-04T09:45:22.477Z,19.40
2022-11-04T09:54:35.001Z,19.66
2022-11-04T09:57:12.261Z,19.71
2022-11-04T10:00:22.836Z,19.81
2022-11-04T10:03:44.904Z,19.96
2022-11-04T10:06:35.542Z,20.17
2022-11-04T10:09:46.840Z,20.35
2022-11-04T10:16:09.014Z,20.43
2022-11-04T10:19:33.794Z,20.47
2022-11-04T10:22:54.856Z,20.44
2022-11-04T10:26:05.426Z,20.40
2022-11-04T10:29:11.446Z,20.49
2022-11-04T10:32:11.400Z,20.59
2022-11-04T10:35:20.846Z,20.70
2022-11-04T10:37:57.607Z,20.84
2022-11-04T10:50:30.561Z,21.73
2022-11-04T10:53:55.478Z,21.80
2022-11-04T10:57:06.454Z,21.78
2022-11-04T11:00:24.121Z,21.83
2022-11-04T11:03:22.845Z,21.90
2022-11-04T11:06:21.303Z,21.98
2022-11-04T11:08:57.272Z,22.00
2022-11-04T11:11:41.622Z,21.96
2022-11-04T11:14:32.185Z,22.01
2022-11-04T11:17:22.005Z,22.04
2022-11-04T11:19:59.181Z,22.02
2022-11-04T11:22:38.911Z,22.02
2022-11-04T11:25:24.347Z,22.02
2022-11-04T11:27:59.535Z,22.00
2022-11-04T11:30:34.845Z,22.01
2022-11-04T11:33:09.864Z,22.04
2022-11-04T11:35:46.977Z,22.07
2022-11-04T11:38:22.542Z,22.10
2022-11-04T11:41:23.785Z,22.13
2022-11-04T11:43:59.505Z,22.11
2022-11-04T11:46:34.597Z,22.08
2022-11-04T11:49:07.685Z,22.00
2022-11-04T11:51:41.651Z,21.96
2022-11-04T11:54:24.536Z,21.98
2022-11-04T11:57:22.358Z,22.01
2022-11-04T12:02:59.731Z,22.02
2022-11-04T12:11:51.842Z,22.14
2022-11-04T12:14:33.801Z,22.16
2022-11-04T12:17:14.143Z,22.16
2022-11-04T12:19:57.976Z,22.31
2022-11-04T12:22:39.212Z,22.37
2022-11-04T12:25:20.661Z,22.40
2022-11-04T12:28:00.265Z,22.45
2022-11-04T12:30:39.760Z,22.52
2022-11-04T12:33:21.780Z,22.67
2022-11-04T12:36:05.188Z,22.73
2022-11-04T12:38:51.783Z,22.71
2022-11-04T12:41:47.172Z,22.67
2022-11-04T12:44:29.611Z,22.62
2022-11-04T12:47:11.769Z,22.55
2022-11-04T12:50:11.298Z,22.52
2022-11-04T12:53:17.478Z,22.42
2022-11-04T12:55:58.660Z,22.31
2022-11-04T12:58:39.387Z,22.22
2022-11-04T13:01:16.319Z,22.17
2022-11-04T13:03:54.086Z,22.07
2022-11-04T13:06:31.075Z,22.03
2022-11-04T13:09:06.817Z,21.98
2022-11-04T13:11:46.803Z,21.97
2022-11-04T13:14:27.550Z,21.95
2022-11-04T13:17:03.044Z,21.92
2022-11-04T13:19:40.477Z,21.91
2022-11-04T13:22:15.277Z,21.86
2022-11-04T13:24:51.116Z,21.80
2022-11-04T13:27:34.916Z,21.75
2022-11-04T13:30:18.322Z,21.74
2022-11-04T13:32:53.985Z,21.69
2022-11-04T13:35:34.786Z,21.64
2022-11-04T13:38:12.891Z,21.59
2022-11-04T13:40:50.774Z,21.60
2022-11-04T13:43:40.366Z,21.59
2022-11-04T13:46:31.002Z,21.63
2022-11-04T13:49:06.026Z,21.63
2022-11-04T13:51:43.327Z,21.61
2022-11-04T13:54:31.773Z,21.59
2022-11-04T13:57:16.014Z,21.54
2022-11-04T14:00:20.805Z,21.46
2022-11-04T14:02:54.408Z,21.42
2022-11-04T14:05:48.749Z,21.33
2022-11-04T14:08:24.787Z,21.28
2022-11-04T14:11:09.242Z,21.25
2022-11-04T14:14:06.646Z,21.26
2022-11-04T14:16:46.617Z,21.23
2022-11-04T14:19:58.266Z,21.23
2022-11-04T14:22:43.096Z,21.20
2022-11-04T14:25:26.991Z,21.13
2022-11-04T14:28:01.789Z,21.08
2022-11-04T14:30:48.438Z,21.01
2022-11-04T14:33:53.724Z,20.98
2022-11-04T14:36:42.764Z,20.94
2022-11-04T14:39:35.001Z,20.92
2022-11-04T14:42:10.253Z,20.91
2022-11-04T14:44:49.769Z,20.88
2022-11-04T14:47:26.793Z,20.86
2022-11-04T14:50:08.789Z,20.84
2022-11-04T14:52:51.436Z,20.85
2022-11-04T14:55:25.140Z,20.82
2022-11-04T14:57:59.091Z,20.80
2022-11-04T15:00:34.980Z,20.77
2022-11-04T15:04:04.644Z,20.71
2022-11-04T15:06:13.635Z,20.65
2022-11-04T15:08:49.491Z,20.62
2022-11-04T15:11:40.680Z,20.55
2022-11-04T15:14:22.041Z,20.50
2022-11-04T15:16:58.511Z,20.49
2022-11-04T15:19:37.986Z,20.49
2022-11-04T15:22:16.044Z,20.51
2022-11-04T15:24:50.659Z,20.53
2022-11-04T15:27:29.522Z,20.54
2022-11-04T15:30:04.151Z,20.51
2022-11-04T15:32:37.297Z,20.51
2022-11-04T15:35:16.676Z,20.47
2022-11-04T15:37:51.482Z,20.43
2022-11-04T15:40:25.125Z,20.41
2022-11-04T15:42:57.877Z,20.39
2022-11-04T15:45:33.241Z,20.37
2022-11-04T15:48:34.634Z,20.37
2022-11-04T15:51:24.850Z,20.29
2022-11-04T15:54:00.886Z,20.22
2022-11-04T15:56:36.856Z,20.17
2022-11-04T15:59:14.168Z,20.14
2022-11-04T16:01:52.205Z,20.06
2022-11-04T16:04:27.811Z,20.04
2022-11-04T16:07:25.108Z,19.98
2022-11-04T16:09:58.113Z,19.95
2022-11-04T16:12:39.545Z,19.91
2022-11-04T16:15:37.416Z,19.85
2022-11-04T16:18:23.726Z,19.75
2022-11-04T16:20:57.597Z,19.66
2022-11-04T16:23:32.837Z,19.57
2022-11-04T16:26:08.027Z,19.54
2022-11-04T16:28:41.860Z,19.50
2022-11-04T16:31:31.131Z,19.48
2022-11-04T16:34:05.605Z,19.44
2022-11-04T16:36:37.902Z,19.42
2022-11-04T16:39:12.698Z,19.42
2022-11-04T16:41:46.546Z,19.41
2022-11-04T16:44:23.657Z,19.42
2022-11-04T16:46:59.655Z,19.39
2022-11-04T16:49:33.012Z,19.37
2022-11-04T16:52:07.400Z,19.40
2022-11-04T16:54:39.309Z,19.42
2022-11-04T16:57:14.543Z,19.43
2022-11-04T16:59:52.962Z,19.38
2022-11-04T17:02:30.860Z,19.30
2022-11-04T17:05:08.038Z,19.21
2022-11-04T17:07:54.519Z,19.14
2022-11-04T17:10:33.404Z,19.13
2022-11-04T17:13:07.144Z,19.08
2022-11-04T17:15:41.146Z,19.02
2022-11-04T17:18:17.233Z,19.01
2022-11-04T17:20:52.777Z,19.02
2022-11-04T17:23:25.673Z,19.05
2022-11-04T17:25:58.704Z,19.00
2022-11-04T17:28:33.623Z,18.90
2022-11-04T17:31:14.517Z,18.82
2022-11-04T17:33:47.713Z,18.83
2022-11-04T17:36:22.618Z,18.83
2022-11-04T17:38:54.664Z,18.84
2022-11-04T17:41:46.655Z,18.87
2022-11-04T17:44:19.223Z,18.87
2022-11-04T17:46:52.282Z,18.81
2022-11-04T17:49:25.897Z,18.76
2022-11-04T17:52:01.238Z,18.76
2022-11-04T17:54:34.603Z,18.76
2022-11-04T17:57:08.879Z,18.69
2022-11-04T17:59:41.083Z,18.63
2022-11-04T18:02:13.583Z,18.56
2022-11-04T18:04:48.991Z,18.50
2022-11-04T18:07:21.429Z,18.44
2022-11-04T18:09:55.690Z,18.41
2022-11-04T18:12:41.673Z,18.41
2022-11-04T18:15:18.952Z,18.38
2022-11-04T18:17:53.531Z,18.38
2022-11-04T18:20:25.609Z,18.36
2022-11-04T18:23:02.037Z,18.37
2022-11-04T18:25:35.089Z,18.38
2022-11-04T18:28:08.186Z,18.32
2022-11-04T18:30:41.833Z,18.33
2022-11-04T18:33:14.201Z,18.34
2022-11-04T18:35:47.097Z,18.32
2022-11-04T18:38:21.863Z,18.34
2022-11-04T18:40:56.891Z,18.35
2022-11-04T18:43:31.835Z,18.35
2022-11-04T18:46:10.187Z,18.29
2022-11-04T18:48:43.331Z,18.26
2022-11-04T18:51:17.349Z,18.26
2022-11-04T18:53:51.330Z,18.28
2022-11-04T18:56:25.314Z,18.33
2022-11-04T18:58:57.846Z,18.37
2022-11-04T19:01:33.532Z,18.37
2022-11-04T19:04:08.384Z,18.31
2022-11-04T19:06:46.332Z,18.23
2022-11-04T19:12:32.241Z,18.08
2022-11-04T19:15:06.535Z,18.04
2022-11-04T19:17:39.883Z,17.98
2022-11-04T19:20:14.125Z,17.95
2022-11-04T19:22:47.574Z,17.94
2022-11-04T19:25:21.509Z,17.96
2022-11-04T19:28:26.445Z,17.94
2022-11-04T19:31:05.625Z,17.91
2022-11-04T19:33:38.380Z,17.92
2022-11-04T19:36:12.509Z,17.91
2022-11-04T19:38:45.124Z,17.87
2022-11-04T19:41:38.242Z,17.86
2022-11-04T19:44:12.940Z,17.89
2022-11-04T19:46:49.303Z,17.87
2022-11-04T19:49:22.268Z,17.84
2022-11-04T19:51:56.081Z,17.88
2022-11-04T19:54:32.806Z,17.91
2022-11-04T19:57:05.443Z,17.90
2022-11-04T19:59:44.361Z,17.91
2022-11-04T20:02:21.942Z,17.89
2022-11-04T20:04:56.518Z,17.90
2022-11-04T20:07:29.024Z,17.90
2022-11-04T20:10:02.730Z,17.91
2022-11-04T20:12:56.097Z,17.92
2022-11-04T20:15:31.337Z,17.90
2022-11-04T20:18:05.403Z,17.89
2022-11-04T20:20:38.935Z,17.88
2022-11-04T20:23:11.410Z,17.87
2022-11-04T20:25:44.092Z,17.85
2022-11-04T20:28:19.429Z,17.83
2022-11-04T20:30:52.195Z,17.87
2022-11-04T20:33:26.278Z,17.88
2022-11-04T20:36:01.046Z,17.88
2022-11-04T20:38:34.761Z,17.85
2022-11-04T20:41:16.775Z,17.84
2022-11-04T20:43:51.588Z,17.86
2022-11-04T20:46:29.622Z,17.86
2022-11-04T20:49:05.787Z,17.88
2022-11-04T20:51:42.236Z,17.87
2022-11-04T20:54:15.672Z,17.87
2022-11-04T20:56:48.732Z,17.88
2022-11-04T20:59:22.598Z,17.87
2022-11-04T21:01:57.594Z,17.89
2022-11-04T21:04:35.950Z,17.87
2022-11-04T21:07:10.103Z,17.87
2022-11-04T21:09:45.210Z,17.84
2022-11-04T21:12:17.772Z,17.79
2022-11-04T21:14:50.312Z,17.73
2022-11-04T21:17:24.171Z,17.72
2022-11-04T21:19:59.353Z,17.74
2022-11-04T21:22:31.969Z,17.68
2022-11-04T21:25:05.197Z,17.66
2022-11-04T21:27:42.068Z,17.66
2022-11-04T21:30:16.792Z,17.67
2022-11-04T21:32:49.228Z,17.70
2022-11-04T21:35:21.950Z,17.75
2022-11-04T21:37:56.741Z,17.77
2022-11-04T21:40:28.814Z,17.77
2022-11-04T21:43:04.655Z,17.74
2022-11-04T21:45:39.055Z,17.74
2022-11-04T21:48:11.932Z,17.76
2022-11-04T21:50:47.545Z,17.73
2022-11-04T21:53:20.230Z,17.74
2022-11-04T21:55:53.940Z,17.78
2022-11-04T21:58:27.738Z,17.81
2022-11-04T22:01:01.744Z,17.82
2022-11-04T22:03:35.649Z,17.81
2022-11-04T22:06:10.245Z,17.83
2022-11-04T22:08:46.387Z,17.74
2022-11-04T22:11:20.280Z,17.62
2022-11-04T22:13:57.237Z,17.61
2022-11-04T22:16:31.027Z,17.61
2022-11-04T22:19:06.667Z,17.61
2022-11-04T22:21:41.218Z,17.62
2022-11-04T22:24:18.917Z,17.63
2022-11-04T22:26:53.459Z,17.63
2022-11-04T22:29:27.154Z,17.63
2022-11-04T22:32:00.135Z,17.62
2022-11-04T22:34:33.393Z,17.63
2022-11-04T22:37:10.297Z,17.65
2022-11-04T22:39:43.662Z,17.64
2022-11-04T22:42:15.537Z,17.67
2022-11-04T22:44:47.413Z,17.64
2022-11-04T22:47:19.893Z,17.64
2022-11-04T22:49:56.629Z,17.79
2022-11-04T22:52:29.252Z,17.67
2022-11-04T22:55:08.543Z,17.61
2022-11-04T22:57:44.257Z,17.63
2022-11-04T23:00:18.116Z,17.61
2022-11-04T23:02:55.252Z,17.58
2022-11-04T23:05:30.772Z,17.58
2022-11-04T23:08:03.380Z,17.57
2022-11-04T23:10:54.426Z,17.58
2022-11-04T23:13:45.785Z,17.59
2022-11-04T23:16:35.454Z,17.62
2022-11-04T23:19:07.679Z,17.57
2022-11-04T23:21:58.232Z,17.54
2022-11-04T23:24:49.266Z,17.52
2022-11-04T23:27:37.166Z,17.57
2022-11-04T23:30:25.912Z,17.61
2022-11-04T23:32:59.866Z,17.60
2022-11-04T23:35:55.142Z,17.77
2022-11-04T23:38:29.702Z,17.81
2022-11-04T23:41:37.732Z,17.64
2022-11-04T23:44:32.677Z,17.57
2022-11-04T23:47:24.736Z,17.53
2022-11-04T23:50:16.607Z,17.47
2022-11-04T23:53:07.399Z,17.48
2022-11-04T23:55:57.536Z,17.43
2022-11-04T23:58:49.403Z,17.33
